Terminal Aerodrome Forecast
Issued by NWS Albany, NY

Home | Current Version | Previous Version | Text Only | Print | Product List | Glossary On
Versions: 1 2 3 4 5 6 7 8 9 10 11 12 13 14 15 16 17 18 19 20 21 22 23 24 25 26 27
000
FTUS41 KALY 010500
TAFPOU
TAF
KPOU 010532Z 0106/0206 03007KT P6SM -SHRA OVC035
      TEMPO 0107/0111 6SM -SHRA OVC030
     FM011100 02008KT P6SM -SHRA OVC030
     FM011700 36010G15KT 6SM -RA OVC030
     FM012000 34010G15KT 5SM -SHRA OVC025
     FM020500 34010G16KT P6SM VCSH OVC035=

USA.gov is the U.S. government's official web portal to all federal, state and local government web resources and services.